Tropical Cyclones
[Index]
Main Index Home Page Stock Weather Photos Extreme Storms Discussion Storm News and Storm Chasing Reports Tropical Cyclones / Hurricanes / Typhoons Weather Data and Links Wild Fires / Bushfires Weather Observation Techniques Weather Picture Catalogue Tornado Pictures and Reports Stock Video Footage and DVDs for sale
Season 1979-1980 Tropical Cyclone PAUL Track Map
Season 1979-1980 Summaries: [BoM-AU] [JTWC-AU] [JTWC-SIO] [JTWC-SPAC] [JTWC-SH]
<<- Previous TC | BoM 1979-1980 Season | Next TC ->>

click for intensity scale information  Lat/long Grid: Show Hide

 Date Labels: Show Hide

Bureau of Meteorology Tropical Cyclone Data

Name: PAUL
Number: 597 / 197980_04

02 Jan 1980 18:00 UTC to 08 Jan 1980 18:00 UTC

    date/time    lat    long    hPa   cat  kts
1980-01-02 18   14.9   136.6   1000                     
1980-01-03 00   15.1   137.0   1001                     
1980-01-03 06   15.4   137.5    999                     
1980-01-03 12   16.0   137.9   1000                     
1980-01-03 18   16.7   138.1    997                     
1980-01-04 00   17.3   138.4    998                     
1980-01-04 06   18.0   138.7    997                     
1980-01-04 12   18.4   139.0    998                     
1980-01-04 18   18.8   139.4    997                     
1980-01-05 00   19.0   140.0    997                     
1980-01-05 06   18.8   140.7    995    1                
1980-01-05 12   18.7   141.4    995    1                
1980-01-05 18   18.7   142.1    995    1                
1980-01-06 00   18.8   142.8    996                     
1980-01-06 06   19.0   143.7    995    1                
1980-01-06 12   19.6   145.6    996                     
1980-01-06 18   20.4   147.5    995    1                
1980-01-07 00   21.6   149.2    995    1                
1980-01-07 06   22.7   151.3    992    1                
1980-01-07 12   23.4   153.6    993    1                
1980-01-07 18   24.8   155.6    989    1                
1980-01-08 00   26.3   157.1    992    1                
1980-01-08 06   28.1   158.5    994    1                
1980-01-08 12   30.3   159.7    990    1                
1980-01-08 18   31.4   160.2    983    2                
Winds are 10-min average.

Tropical cyclone tracks developed by Michael Bath using data from the Bureau of Meteorology and Google Maps.


[Australian Severe Weather index] [Copyright Notice] [Email Contacts] [Search This Site] [Privacy Policy]
Document: tropical_cyclone_paul.htm Updated: 30 May 2013